createdAt,value
2022-11-16T00:01:44.055Z,79.20
2022-11-16T00:04:12.120Z,79.40
2022-11-16T00:06:39.933Z,80.20
2022-11-16T00:09:22.511Z,80.00
2022-11-16T00:11:51.350Z,80.20
2022-11-16T00:14:19.222Z,80.30
2022-11-16T00:16:46.395Z,80.10
2022-11-16T00:19:14.416Z,80.10
2022-11-16T00:21:41.439Z,80.10
2022-11-16T00:24:12.722Z,80.10
2022-11-16T00:26:39.562Z,80.30
2022-11-16T00:29:06.706Z,80.30
2022-11-16T00:31:33.414Z,81.00
2022-11-16T00:34:00.111Z,80.20
2022-11-16T00:36:27.555Z,79.90
2022-11-16T00:38:54.378Z,80.30
2022-11-16T00:41:21.379Z,80.30
2022-11-16T00:43:48.317Z,80.20
2022-11-16T00:46:15.008Z,80.10
2022-11-16T00:48:41.934Z,80.10
2022-11-16T00:51:08.764Z,80.30
2022-11-16T00:53:36.298Z,80.40
2022-11-16T00:56:03.318Z,80.20
2022-11-16T00:58:34.238Z,80.00
2022-11-16T01:01:07.400Z,80.30
2022-11-16T01:03:35.511Z,80.10
2022-11-16T01:06:04.639Z,80.10
2022-11-16T01:08:32.524Z,80.50
2022-11-16T01:11:20.174Z,80.40
2022-11-16T01:13:47.756Z,80.70
2022-11-16T01:16:16.324Z,80.70
2022-11-16T01:18:54.464Z,80.80
2022-11-16T01:21:22.647Z,81.00
2022-11-16T01:23:49.551Z,80.80
2022-11-16T01:26:16.486Z,80.70
2022-11-16T01:28:43.434Z,80.60
2022-11-16T01:31:11.586Z,80.30
2022-11-16T01:33:38.955Z,80.20
2022-11-16T01:36:14.211Z,80.70
2022-11-16T01:38:43.438Z,80.70
2022-11-16T01:41:15.327Z,80.50
2022-11-16T01:43:57.742Z,80.50
2022-11-16T01:46:30.633Z,80.50
2022-11-16T01:49:12.688Z,80.30
2022-11-16T01:51:41.643Z,80.60
2022-11-16T01:54:12.436Z,80.00
2022-11-16T01:56:49.135Z,79.80
2022-11-16T01:59:40.267Z,79.40
2022-11-16T02:02:13.593Z,78.90
2022-11-16T02:04:40.454Z,79.10
2022-11-16T02:07:15.119Z,79.40
2022-11-16T02:09:53.838Z,79.40
2022-11-16T02:12:57.979Z,79.40
2022-11-16T02:15:41.958Z,79.60
2022-11-16T02:18:36.994Z,79.00
2022-11-16T02:21:16.193Z,79.20
2022-11-16T02:24:27.601Z,79.30
2022-11-16T02:27:09.630Z,79.50
2022-11-16T02:29:42.634Z,79.00
2022-11-16T02:32:21.506Z,79.30
2022-11-16T02:35:03.146Z,79.10
2022-11-16T02:37:34.338Z,79.20
2022-11-16T02:40:06.575Z,79.40
2022-11-16T02:42:41.389Z,79.10
2022-11-16T02:45:13.243Z,78.90
2022-11-16T02:47:43.002Z,79.20
2022-11-16T02:50:15.246Z,79.50
2022-11-16T02:52:42.184Z,80.00
2022-11-16T02:55:11.496Z,78.90
2022-11-16T02:57:55.709Z,78.70
2022-11-16T03:00:25.637Z,79.00
2022-11-16T03:03:04.067Z,78.50
2022-11-16T03:05:35.390Z,78.30
2022-11-16T03:08:24.006Z,77.90
2022-11-16T03:11:18.563Z,78.40
2022-11-16T03:13:47.356Z,80.00
2022-11-16T03:16:22.472Z,79.90
2022-11-16T03:18:51.962Z,79.90
2022-11-16T03:21:33.037Z,79.70
2022-11-16T03:24:02.057Z,79.40
2022-11-16T03:26:59.771Z,79.40
2022-11-16T03:29:54.329Z,79.80
2022-11-16T03:32:30.939Z,79.80
2022-11-16T03:35:06.245Z,79.20
2022-11-16T03:37:34.582Z,79.10
2022-11-16T03:40:04.275Z,78.90
2022-11-16T03:42:33.663Z,78.90
2022-11-16T03:45:00.495Z,79.00
2022-11-16T03:47:27.345Z,78.80
2022-11-16T03:49:54.083Z,78.90
2022-11-16T03:52:22.526Z,78.70
2022-11-16T03:54:50.540Z,78.90
2022-11-16T03:57:18.615Z,79.10
2022-11-16T03:59:51.341Z,78.90
2022-11-16T04:02:18.310Z,79.00
2022-11-16T04:05:03.882Z,78.70
2022-11-16T04:07:50.183Z,78.60
2022-11-16T04:10:35.485Z,78.70
2022-11-16T04:13:22.963Z,78.70
2022-11-16T04:16:08.706Z,78.50
2022-11-16T04:18:54.090Z,78.50
2022-11-16T04:21:46.612Z,78.40
2022-11-16T04:24:21.455Z,78.40
2022-11-16T04:27:11.927Z,78.20
2022-11-16T04:29:41.563Z,78.10
2022-11-16T04:32:28.394Z,78.10
2022-11-16T04:35:14.638Z,78.10
2022-11-16T04:37:52.355Z,77.90
2022-11-16T04:40:29.436Z,77.80
2022-11-16T04:42:59.724Z,78.10
2022-11-16T04:45:48.370Z,77.70
2022-11-16T04:48:19.281Z,77.60
2022-11-16T04:50:47.236Z,77.80
2022-11-16T04:53:14.571Z,77.60
2022-11-16T04:55:50.331Z,77.90
2022-11-16T04:58:19.414Z,77.70
2022-11-16T05:00:46.554Z,77.50
2022-11-16T05:03:13.685Z,77.50
2022-11-16T05:05:40.795Z,77.40
2022-11-16T05:08:09.212Z,77.30
2022-11-16T05:10:36.494Z,77.10
2022-11-16T05:13:03.234Z,77.30
2022-11-16T05:15:30.276Z,77.60
2022-11-16T05:17:59.112Z,77.40
2022-11-16T05:20:44.836Z,77.50
2022-11-16T05:23:32.159Z,77.50
2022-11-16T05:26:04.431Z,77.70
2022-11-16T05:28:31.437Z,77.30
2022-11-16T05:30:58.430Z,77.50
2022-11-16T05:33:27.909Z,77.50
2022-11-16T05:35:54.833Z,77.50
2022-11-16T05:38:22.247Z,77.50
2022-11-16T05:40:53.049Z,77.60
2022-11-16T05:43:20.534Z,77.70
2022-11-16T05:46:05.999Z,77.90
2022-11-16T05:48:33.625Z,77.80
2022-11-16T05:51:00.517Z,77.60
2022-11-16T05:53:31.843Z,77.10
2022-11-16T05:55:58.827Z,77.10
2022-11-16T05:58:26.198Z,76.90
2022-11-16T06:00:53.655Z,76.70
2022-11-16T06:03:20.489Z,76.50
2022-11-16T06:05:47.321Z,76.40
2022-11-16T06:08:16.481Z,76.60
2022-11-16T06:10:43.331Z,76.50
2022-11-16T06:13:10.081Z,76.70
2022-11-16T06:15:38.532Z,76.80
2022-11-16T06:18:07.667Z,76.50
2022-11-16T06:20:38.148Z,76.50
2022-11-16T06:23:05.642Z,76.40
2022-11-16T06:25:32.539Z,76.60
2022-11-16T06:28:02.964Z,76.60
2022-11-16T06:30:34.247Z,76.40
2022-11-16T06:33:02.372Z,76.20
2022-11-16T06:35:29.225Z,76.10
2022-11-16T06:37:58.398Z,76.00
2022-11-16T06:40:25.780Z,75.60
2022-11-16T06:42:52.597Z,75.70
2022-11-16T06:45:19.622Z,75.80
2022-11-16T06:47:51.141Z,75.80
2022-11-16T06:50:19.279Z,75.60
2022-11-16T06:52:48.869Z,75.50
2022-11-16T06:55:17.095Z,75.50
2022-11-16T06:57:44.132Z,75.40
2022-11-16T07:00:11.518Z,75.40
2022-11-16T07:02:39.674Z,75.40
2022-11-16T07:05:09.838Z,75.30
2022-11-16T07:07:37.409Z,75.20
2022-11-16T07:10:04.951Z,75.60
2022-11-16T07:12:32.153Z,75.00
2022-11-16T07:15:00.364Z,75.20
2022-11-16T07:17:29.560Z,75.90
2022-11-16T07:19:57.439Z,75.20
2022-11-16T07:22:24.239Z,74.90
2022-11-16T07:24:51.875Z,75.00
2022-11-16T07:27:20.451Z,75.00
2022-11-16T07:29:50.153Z,74.90
2022-11-16T07:32:35.690Z,75.10
2022-11-16T07:35:28.752Z,75.20
2022-11-16T07:37:55.813Z,75.30
2022-11-16T07:40:22.608Z,75.20
2022-11-16T07:42:50.043Z,75.30
2022-11-16T07:45:33.580Z,75.40
2022-11-16T07:48:06.214Z,75.20
2022-11-16T07:50:51.474Z,75.00
2022-11-16T07:53:19.950Z,75.00
2022-11-16T07:55:54.865Z,74.90
2022-11-16T07:58:23.857Z,75.00
2022-11-16T08:00:51.106Z,74.70
2022-11-16T08:03:23.338Z,74.70
2022-11-16T08:06:02.477Z,74.70
2022-11-16T08:08:29.921Z,75.00
2022-11-16T08:11:01.651Z,75.00
2022-11-16T08:13:31.885Z,74.70
2022-11-16T08:16:10.574Z,74.80
2022-11-16T08:18:39.447Z,75.00
2022-11-16T08:21:08.767Z,74.70
2022-11-16T08:23:35.909Z,74.80
2022-11-16T08:26:06.550Z,74.70
2022-11-16T08:28:34.049Z,75.10
2022-11-16T08:31:08.131Z,74.90
2022-11-16T08:33:35.353Z,74.80
2022-11-16T08:36:13.590Z,74.70
2022-11-16T08:38:40.996Z,74.70
2022-11-16T08:41:08.093Z,74.90
2022-11-16T08:43:35.880Z,74.80
2022-11-16T08:46:03.186Z,74.80
2022-11-16T08:48:30.126Z,74.60
2022-11-16T08:51:21.560Z,74.70
2022-11-16T08:53:57.360Z,74.70
2022-11-16T08:56:27.092Z,74.50
2022-11-16T08:58:58.582Z,74.30
2022-11-16T09:01:28.747Z,74.70
2022-11-16T09:03:56.020Z,74.60
2022-11-16T09:06:24.114Z,74.50
2022-11-16T09:08:51.054Z,74.20
2022-11-16T09:11:20.829Z,74.40
2022-11-16T09:13:48.806Z,73.70
2022-11-16T09:16:16.729Z,73.30
2022-11-16T09:18:48.459Z,73.20
2022-11-16T09:21:21.055Z,72.80
2022-11-16T09:23:48.914Z,73.00
2022-11-16T09:26:19.087Z,72.90
2022-11-16T09:28:45.987Z,73.30
2022-11-16T09:31:12.750Z,73.00
2022-11-16T09:33:39.537Z,73.30
2022-11-16T09:36:08.814Z,73.40
2022-11-16T09:41:33.416Z,72.90
2022-11-16T09:44:24.513Z,72.30
2022-11-16T09:46:56.649Z,72.50
2022-11-16T09:49:28.831Z,72.30
2022-11-16T09:52:03.679Z,72.60
2022-11-16T09:54:35.427Z,72.70
2022-11-16T09:57:12.380Z,72.70
2022-11-16T09:59:51.802Z,72.60
2022-11-16T10:02:34.411Z,72.50
2022-11-16T10:05:21.914Z,72.50
2022-11-16T10:07:54.863Z,71.00
2022-11-16T10:10:33.173Z,71.50
2022-11-16T10:13:05.973Z,71.80
2022-11-16T10:16:06.703Z,72.20
2022-11-16T10:18:59.740Z,73.10
2022-11-16T10:21:38.531Z,72.40
2022-11-16T10:24:11.089Z,72.50
2022-11-16T10:27:04.187Z,72.70
2022-11-16T10:30:10.865Z,73.10
2022-11-16T10:32:48.848Z,73.00
2022-11-16T10:35:25.676Z,72.90
2022-11-16T10:37:52.505Z,72.70
2022-11-16T10:40:26.770Z,73.20
2022-11-16T10:43:11.415Z,73.20
2022-11-16T10:46:00.311Z,74.00
2022-11-16T10:48:41.230Z,73.10
2022-11-16T10:51:09.636Z,72.80
2022-11-16T10:53:43.766Z,72.70
2022-11-16T10:56:40.403Z,73.10
2022-11-16T10:59:10.550Z,73.50
2022-11-16T11:01:41.717Z,72.40
2022-11-16T11:04:16.423Z,72.60
2022-11-16T11:06:43.883Z,73.00
2022-11-16T11:09:30.982Z,71.40
2022-11-16T11:12:37.828Z,71.50
2022-11-16T11:15:26.238Z,71.30
2022-11-16T11:18:11.702Z,71.20
2022-11-16T11:20:44.742Z,71.20
2022-11-16T11:23:21.453Z,71.30
2022-11-16T11:25:52.519Z,71.30
2022-11-16T11:28:31.674Z,72.00
2022-11-16T11:31:16.802Z,71.60
2022-11-16T11:33:50.247Z,70.70
2022-11-16T11:36:23.718Z,70.80
2022-11-16T11:39:05.877Z,71.50
2022-11-16T11:41:39.294Z,71.50
2022-11-16T11:44:18.410Z,71.30
2022-11-16T11:47:56.603Z,71.40
2022-11-16T11:50:45.928Z,71.30
2022-11-16T11:53:15.728Z,71.70
2022-11-16T11:55:42.552Z,71.60
2022-11-16T11:58:16.111Z,71.60
2022-11-16T12:00:58.035Z,71.10
2022-11-16T12:03:42.972Z,70.20
2022-11-16T12:06:31.219Z,70.90
2022-11-16T12:09:23.435Z,70.00
2022-11-16T12:12:07.353Z,69.90
2022-11-16T12:14:51.222Z,69.70
2022-11-16T12:17:27.121Z,70.00
2022-11-16T12:20:00.033Z,70.30
2022-11-16T12:23:02.580Z,70.20
2022-11-16T12:26:01.701Z,69.20
2022-11-16T12:29:09.630Z,68.90
2022-11-16T12:31:50.433Z,69.50
2022-11-16T12:34:31.348Z,67.40
2022-11-16T12:37:22.521Z,68.50
2022-11-16T12:40:16.846Z,68.80
2022-11-16T12:42:58.594Z,68.60
2022-11-16T12:45:43.555Z,68.70
2022-11-16T12:48:25.686Z,67.10
2022-11-16T12:51:07.484Z,67.60
2022-11-16T12:53:43.235Z,67.20
2022-11-16T12:56:33.081Z,68.40
2022-11-16T12:59:11.636Z,69.10
2022-11-16T13:01:56.293Z,68.80
2022-11-16T13:04:35.928Z,69.10
2022-11-16T13:07:11.145Z,69.60
2022-11-16T13:09:43.386Z,69.40
2022-11-16T13:12:16.938Z,69.50
2022-11-16T13:14:48.091Z,69.80
2022-11-16T13:17:28.130Z,69.20
2022-11-16T13:20:15.503Z,69.00
2022-11-16T13:22:51.533Z,70.00
2022-11-16T13:25:31.395Z,69.60
2022-11-16T13:28:10.449Z,68.90
2022-11-16T13:31:03.351Z,69.00
2022-11-16T13:33:32.653Z,67.90
2022-11-16T13:35:59.411Z,68.80
2022-11-16T13:38:54.168Z,69.10
2022-11-16T13:41:33.468Z,69.50
2022-11-16T13:44:01.596Z,69.70
2022-11-16T13:46:58.698Z,69.50
2022-11-16T13:49:27.238Z,70.30
2022-11-16T13:52:22.204Z,68.90
2022-11-16T13:54:53.589Z,68.50
2022-11-16T13:57:27.777Z,68.20
2022-11-16T14:00:29.816Z,68.60
2022-11-16T14:03:15.213Z,68.40
2022-11-16T14:05:43.581Z,68.30
2022-11-16T14:08:19.461Z,67.30
2022-11-16T14:10:49.965Z,67.50
2022-11-16T14:13:39.132Z,68.00
2022-11-16T14:16:15.041Z,67.80
2022-11-16T14:18:42.906Z,67.60
2022-11-16T14:21:15.390Z,67.00
2022-11-16T14:23:48.183Z,67.50
2022-11-16T14:26:33.056Z,67.30
2022-11-16T14:29:26.991Z,68.00
2022-11-16T14:31:56.935Z,68.50
2022-11-16T14:34:30.540Z,68.30
2022-11-16T14:37:00.891Z,68.30
2022-11-16T14:39:27.768Z,68.40
2022-11-16T14:42:18.727Z,68.00
2022-11-16T14:44:46.487Z,68.30
2022-11-16T14:47:24.460Z,67.50
2022-11-16T14:49:51.794Z,68.40
2022-11-16T14:52:41.234Z,68.80
2022-11-16T14:55:16.793Z,68.80
2022-11-16T14:57:43.547Z,69.30
2022-11-16T15:00:22.650Z,69.20
2022-11-16T15:02:59.181Z,69.10
2022-11-16T15:05:33.365Z,69.20
2022-11-16T15:08:01.334Z,69.00
2022-11-16T15:10:29.454Z,69.00
2022-11-16T15:12:57.540Z,69.40
2022-11-16T15:15:27.778Z,69.50
2022-11-16T15:18:00.501Z,69.30
2022-11-16T15:20:33.795Z,69.80
2022-11-16T15:23:02.158Z,69.70
2022-11-16T15:25:42.404Z,69.90
2022-11-16T15:28:26.145Z,69.90
2022-11-16T15:30:54.543Z,69.90
2022-11-16T15:33:30.194Z,69.60
2022-11-16T15:35:57.557Z,69.50
2022-11-16T15:38:32.801Z,69.50
2022-11-16T15:41:04.315Z,69.50
2022-11-16T15:43:31.053Z,69.50
2022-11-16T15:45:59.192Z,69.70
2022-11-16T15:48:27.305Z,69.80
2022-11-16T15:51:07.887Z,69.70
2022-11-16T15:53:47.926Z,70.00
2022-11-16T15:56:20.575Z,69.80
2022-11-16T15:58:48.749Z,70.00
2022-11-16T16:01:16.545Z,69.80
2022-11-16T16:04:19.025Z,70.00
2022-11-16T16:06:45.937Z,70.70
2022-11-16T16:09:21.106Z,70.20
2022-11-16T16:11:48.237Z,70.30
2022-11-16T16:14:29.697Z,70.20
2022-11-16T16:17:00.682Z,70.50
2022-11-16T16:19:37.024Z,70.40
2022-11-16T16:22:05.652Z,70.40
2022-11-16T16:24:46.997Z,70.30
2022-11-16T16:27:38.066Z,70.40
2022-11-16T16:30:06.392Z,70.60
2022-11-16T16:32:35.511Z,70.20
2022-11-16T16:35:05.567Z,70.50
2022-11-16T16:37:33.833Z,70.40
2022-11-16T16:40:00.590Z,70.60
2022-11-16T16:42:27.576Z,70.50
2022-11-16T16:44:54.385Z,70.50
2022-11-16T16:47:21.249Z,70.60
2022-11-16T16:49:48.907Z,70.60
2022-11-16T16:52:15.692Z,70.70
2022-11-16T16:54:42.612Z,70.70
2022-11-16T16:57:14.350Z,70.80
2022-11-16T16:59:41.199Z,70.90
2022-11-16T17:02:11.646Z,70.80
2022-11-16T17:04:38.482Z,70.70
2022-11-16T17:07:05.407Z,70.90
2022-11-16T17:09:32.295Z,71.20
2022-11-16T17:11:59.021Z,71.30
2022-11-16T17:14:25.802Z,71.00
2022-11-16T17:16:52.544Z,70.80
2022-11-16T17:19:19.920Z,70.80
2022-11-16T17:21:46.705Z,71.00
2022-11-16T17:24:13.504Z,71.10
2022-11-16T17:26:40.784Z,71.20
2022-11-16T17:29:07.504Z,70.90
2022-11-16T17:31:34.254Z,70.90
2022-11-16T17:34:01.186Z,70.80
2022-11-16T17:36:27.908Z,71.00
2022-11-16T17:38:54.603Z,70.90
2022-11-16T17:41:22.186Z,70.80
2022-11-16T17:43:52.929Z,70.90
2022-11-16T17:46:21.844Z,70.90
2022-11-16T17:48:50.584Z,71.00
2022-11-16T17:51:22.952Z,70.90
2022-11-16T17:53:49.808Z,70.90
2022-11-16T17:56:22.119Z,70.90
2022-11-16T17:58:52.248Z,71.10
2022-11-16T18:01:19.410Z,70.90
2022-11-16T18:03:46.132Z,71.00
2022-11-16T18:06:18.526Z,70.80
2022-11-16T18:08:46.270Z,70.50
2022-11-16T18:11:19.182Z,70.30
2022-11-16T18:13:46.953Z,70.20
2022-11-16T18:16:19.462Z,69.90
2022-11-16T18:18:47.406Z,70.00
2022-11-16T18:21:20.375Z,69.90
2022-11-16T18:23:47.988Z,69.80
2022-11-16T18:26:17.540Z,69.70
2022-11-16T18:28:45.380Z,70.20
2022-11-16T18:31:15.299Z,70.10
2022-11-16T18:33:42.435Z,70.10
2022-11-16T18:36:09.915Z,70.20
2022-11-16T18:38:37.494Z,69.80
2022-11-16T18:41:13.398Z,70.10
2022-11-16T18:43:40.763Z,70.30
2022-11-16T18:46:07.786Z,70.30
2022-11-16T18:48:34.774Z,70.20
2022-11-16T18:51:02.991Z,70.20
2022-11-16T18:53:30.869Z,70.50
2022-11-16T18:55:58.436Z,70.70
2022-11-16T19:01:16.974Z,70.60
2022-11-16T19:03:43.917Z,70.90
2022-11-16T19:06:11.783Z,70.60
2022-11-16T19:08:40.460Z,70.60
2022-11-16T19:11:09.762Z,70.80
2022-11-16T19:13:37.021Z,70.70
2022-11-16T19:16:04.385Z,70.00
2022-11-16T19:18:31.611Z,70.40
2022-11-16T19:21:23.630Z,70.30
2022-11-16T19:23:52.942Z,70.40
2022-11-16T19:26:25.630Z,70.40
2022-11-16T19:28:53.587Z,70.10
2022-11-16T19:31:24.507Z,70.30
2022-11-16T19:33:55.966Z,70.40
2022-11-16T19:36:24.094Z,70.40
2022-11-16T19:38:51.229Z,70.20
2022-11-16T19:41:21.246Z,70.20
2022-11-16T19:43:49.288Z,70.10
2022-11-16T19:46:17.018Z,70.20
2022-11-16T19:48:44.951Z,70.20
2022-11-16T19:51:21.295Z,70.10
2022-11-16T19:53:48.343Z,69.90
2022-11-16T19:56:17.443Z,70.00
2022-11-16T19:58:44.316Z,70.10
2022-11-16T20:01:19.520Z,70.00
2022-11-16T20:03:48.693Z,69.70
2022-11-16T20:06:24.791Z,69.70
2022-11-16T20:08:53.860Z,69.80
2022-11-16T20:11:23.523Z,69.70
2022-11-16T20:13:52.161Z,69.60
2022-11-16T20:16:22.563Z,69.60
2022-11-16T20:18:50.439Z,69.60
2022-11-16T20:21:34.401Z,69.50
2022-11-16T20:24:06.422Z,69.80
2022-11-16T20:26:36.176Z,69.30
2022-11-16T20:29:03.969Z,69.50
2022-11-16T20:31:33.193Z,69.40
2022-11-16T20:34:02.394Z,69.60
2022-11-16T20:36:30.642Z,69.30
2022-11-16T20:38:58.984Z,69.10
2022-11-16T20:41:32.415Z,68.80
2022-11-16T20:44:00.997Z,69.50
2022-11-16T20:46:29.925Z,69.30
2022-11-16T20:48:59.429Z,69.40
2022-11-16T20:51:27.196Z,69.30
2022-11-16T20:53:54.140Z,69.10
2022-11-16T20:56:21.510Z,69.10
2022-11-16T20:58:49.479Z,68.90
2022-11-16T21:01:28.316Z,69.10
2022-11-16T21:03:56.375Z,69.00
2022-11-16T21:06:23.265Z,69.10
2022-11-16T21:08:50.109Z,69.20
2022-11-16T21:11:20.154Z,69.10
2022-11-16T21:14:06.294Z,69.20
2022-11-16T21:16:33.699Z,69.20
2022-11-16T21:19:00.708Z,69.20
2022-11-16T21:21:27.696Z,69.10
2022-11-16T21:23:55.007Z,68.80
2022-11-16T21:26:30.093Z,68.90
2022-11-16T21:28:57.860Z,69.00
2022-11-16T21:31:27.443Z,69.00
2022-11-16T21:33:54.612Z,68.90
2022-11-16T21:36:24.379Z,69.00
2022-11-16T21:38:51.977Z,69.00
2022-11-16T21:41:20.904Z,68.80
2022-11-16T21:43:47.927Z,69.00
2022-11-16T21:46:17.387Z,69.00
2022-11-16T21:48:44.930Z,68.80
2022-11-16T21:51:13.602Z,68.90
2022-11-16T21:53:40.649Z,68.70
2022-11-16T21:56:10.612Z,68.70
2022-11-16T21:58:38.989Z,68.90
2022-11-16T22:01:06.014Z,68.70
2022-11-16T22:03:33.080Z,68.80
2022-11-16T22:06:20.950Z,68.90
2022-11-16T22:08:48.126Z,69.00
2022-11-16T22:11:15.835Z,68.80
2022-11-16T22:13:43.555Z,69.00
2022-11-16T22:16:13.326Z,69.00
2022-11-16T22:18:40.100Z,68.90
2022-11-16T22:21:07.541Z,68.70
2022-11-16T22:23:36.026Z,68.60
2022-11-16T22:26:05.636Z,68.70
2022-11-16T22:28:33.364Z,68.90
2022-11-16T22:31:02.060Z,68.70
2022-11-16T22:33:29.395Z,68.60
2022-11-16T22:35:56.299Z,68.60
2022-11-16T22:38:23.443Z,69.00
2022-11-16T22:40:55.302Z,69.20
2022-11-16T22:43:25.030Z,69.20
2022-11-16T22:45:51.729Z,69.20
2022-11-16T22:48:18.515Z,69.20
2022-11-16T22:50:45.319Z,69.20
2022-11-16T22:53:12.153Z,69.70
2022-11-16T22:55:39.269Z,69.80
2022-11-16T22:58:06.524Z,70.00
2022-11-16T23:00:40.557Z,70.20
2022-11-16T23:03:08.734Z,70.50
2022-11-16T23:05:35.470Z,70.70
2022-11-16T23:08:02.163Z,70.80
2022-11-16T23:10:29.070Z,70.90
2022-11-16T23:13:14.037Z,71.50
2022-11-16T23:15:49.946Z,71.80
2022-11-16T23:18:18.014Z,72.20
2022-11-16T23:21:03.311Z,73.10
2022-11-16T23:23:48.589Z,73.80
2022-11-16T23:26:41.233Z,74.60
2022-11-16T23:29:09.659Z,75.30
2022-11-16T23:31:37.545Z,75.70
2022-11-16T23:34:04.493Z,75.70
2022-11-16T23:36:31.203Z,76.20
2022-11-16T23:38:57.969Z,75.80
2022-11-16T23:41:43.197Z,76.30
2022-11-16T23:44:09.979Z,76.40
2022-11-16T23:46:36.696Z,76.40
2022-11-16T23:49:03.466Z,76.40
2022-11-16T23:51:30.189Z,76.60
2022-11-16T23:53:56.926Z,76.80
2022-11-16T23:56:23.755Z,77.60
2022-11-16T23:58:50.537Z,77.60
